sensor_id;sensor_type;location;lat;lon;timestamp;pressure;altitude;pressure_sealevel;temperature;humidity
48352;BME280;34163;49.314;6.752;2022-08-21T00:02:21;99731.81;;;13.15;100.00
48352;BME280;34163;49.314;6.752;2022-08-21T00:04:47;99725.63;;;12.99;100.00
48352;BME280;34163;49.314;6.752;2022-08-21T00:07:15;99724.16;;;13.09;100.00
48352;BME280;34163;49.314;6.752;2022-08-21T00:09:43;99732.13;;;12.93;100.00
48352;BME280;34163;49.314;6.752;2022-08-21T00:12:08;99728.41;;;13.13;100.00
48352;BME280;34163;49.314;6.752;2022-08-21T00:14:33;99723.22;;;12.94;100.00
48352;BME280;34163;49.314;6.752;2022-08-21T00:16:59;99723.06;;;13.13;100.00
48352;BME280;34163;49.314;6.752;2022-08-21T00:19:24;99719.66;;;12.94;100.00
48352;BME280;34163;49.314;6.752;2022-08-21T00:21:53;99723.00;;;13.15;100.00
48352;BME280;34163;49.314;6.752;2022-08-21T00:24:22;99721.31;;;12.96;100.00
48352;BME280;34163;49.314;6.752;2022-08-21T00:26:57;99725.47;;;13.18;100.00
48352;BME280;34163;49.314;6.752;2022-08-21T00:29:23;99728.28;;;12.99;100.00
48352;BME280;34163;49.314;6.752;2022-08-21T00:31:49;99724.84;;;13.13;100.00
48352;BME280;34163;49.314;6.752;2022-08-21T00:34:22;99710.34;;;13.02;100.00
48352;BME280;34163;49.314;6.752;2022-08-21T00:36:47;99719.78;;;13.08;100.00
48352;BME280;34163;49.314;6.752;2022-08-21T00:39:17;99714.63;;;13.05;100.00
48352;BME280;34163;49.314;6.752;2022-08-21T00:44:44;99719.09;;;13.04;100.00
48352;BME280;34163;49.314;6.752;2022-08-21T00:47:12;99727.13;;;12.87;100.00
48352;BME280;34163;49.314;6.752;2022-08-21T00:49:38;99727.00;;;13.06;100.00
48352;BME280;34163;49.314;6.752;2022-08-21T00:52:04;99722.66;;;12.87;100.00
48352;BME280;34163;49.314;6.752;2022-08-21T00:54:50;99721.44;;;13.11;100.00
48352;BME280;34163;49.314;6.752;2022-08-21T00:57:26;99721.03;;;12.85;100.00
48352;BME280;34163;49.314;6.752;2022-08-21T01:00:28;99717.97;;;12.93;100.00
48352;BME280;34163;49.314;6.752;2022-08-21T01:02:51;99719.59;;;12.95;100.00
48352;BME280;34163;49.314;6.752;2022-08-21T01:05:19;99723.94;;;12.80;100.00
48352;BME280;34163;49.314;6.752;2022-08-21T01:07:54;99728.44;;;12.96;100.00
48352;BME280;34163;49.314;6.752;2022-08-21T01:10:22;99731.16;;;12.78;100.00
48352;BME280;34163;49.314;6.752;2022-08-21T01:12:51;99729.97;;;13.00;100.00
48352;BME280;34163;49.314;6.752;2022-08-21T01:15:20;99727.38;;;12.82;100.00
48352;BME280;34163;49.314;6.752;2022-08-21T01:17:49;99727.66;;;12.94;100.00
48352;BME280;34163;49.314;6.752;2022-08-21T01:20:15;99733.63;;;12.81;100.00
48352;BME280;34163;49.314;6.752;2022-08-21T01:22:43;99733.28;;;12.87;100.00
48352;BME280;34163;49.314;6.752;2022-08-21T01:25:08;99734.50;;;12.82;100.00
48352;BME280;34163;49.314;6.752;2022-08-21T03:34:08;99696.50;;;12.29;100.00
48352;BME280;34163;49.314;6.752;2022-08-21T03:36:34;99692.16;;;12.44;100.00
48352;BME280;34163;49.314;6.752;2022-08-21T03:38:59;99704.47;;;12.29;100.00
48352;BME280;34163;49.314;6.752;2022-08-21T03:41:30;99700.91;;;12.46;100.00
48352;BME280;34163;49.314;6.752;2022-08-21T03:44:12;99698.34;;;12.27;100.00
48352;BME280;34163;49.314;6.752;2022-08-21T03:46:55;99701.88;;;12.27;100.00
48352;BME280;34163;49.314;6.752;2022-08-21T03:49:26;99699.22;;;12.45;100.00
48352;BME280;34163;49.314;6.752;2022-08-21T03:55:51;99702.72;;;12.28;100.00
48352;BME280;34163;49.314;6.752;2022-08-21T03:58:25;99703.81;;;12.41;100.00
48352;BME280;34163;49.314;6.752;2022-08-21T04:01:13;99700.00;;;12.29;100.00
48352;BME280;34163;49.314;6.752;2022-08-21T04:03:38;99704.38;;;12.30;100.00
48352;BME280;34163;49.314;6.752;2022-08-21T04:06:06;99709.47;;;12.35;100.00
48352;BME280;34163;49.314;6.752;2022-08-21T04:08:46;99704.63;;;12.26;100.00
48352;BME280;34163;49.314;6.752;2022-08-21T04:11:11;99710.00;;;12.42;100.00
48352;BME280;34163;49.314;6.752;2022-08-21T04:13:37;99717.19;;;12.22;100.00
48352;BME280;34163;49.314;6.752;2022-08-21T04:16:02;99713.50;;;12.42;100.00
48352;BME280;34163;49.314;6.752;2022-08-21T04:18:27;99717.66;;;12.30;100.00
48352;BME280;34163;49.314;6.752;2022-08-21T04:20:56;99711.09;;;12.38;100.00
48352;BME280;34163;49.314;6.752;2022-08-21T04:23:24;99718.97;;;12.39;100.00
48352;BME280;34163;49.314;6.752;2022-08-21T04:25:53;99720.56;;;12.26;100.00
48352;BME280;34163;49.314;6.752;2022-08-21T04:28:21;99722.31;;;12.43;100.00
48352;BME280;34163;49.314;6.752;2022-08-21T04:30:55;99723.13;;;12.27;100.00
48352;BME280;34163;49.314;6.752;2022-08-21T04:33:20;99715.16;;;12.45;100.00
48352;BME280;34163;49.314;6.752;2022-08-21T04:35:46;99728.13;;;12.33;100.00
48352;BME280;34163;49.314;6.752;2022-08-21T04:38:11;99727.31;;;12.49;100.00
48352;BME280;34163;49.314;6.752;2022-08-21T04:40:37;99723.81;;;12.31;100.00
48352;BME280;34163;49.314;6.752;2022-08-21T04:43:06;99729.28;;;12.28;100.00
48352;BME280;34163;49.314;6.752;2022-08-21T04:45:33;99728.84;;;12.37;100.00
48352;BME280;34163;49.314;6.752;2022-08-21T04:47:59;99732.03;;;12.26;100.00
48352;BME280;34163;49.314;6.752;2022-08-21T04:50:28;99736.72;;;12.39;100.00
48352;BME280;34163;49.314;6.752;2022-08-21T04:52:54;99732.56;;;12.15;100.00
48352;BME280;34163;49.314;6.752;2022-08-21T04:55:20;99739.38;;;12.39;100.00
48352;BME280;34163;49.314;6.752;2022-08-21T04:57:46;99733.22;;;12.21;100.00
48352;BME280;34163;49.314;6.752;2022-08-21T05:00:12;99741.19;;;12.38;100.00
48352;BME280;34163;49.314;6.752;2022-08-21T05:02:39;99739.06;;;12.27;100.00
48352;BME280;34163;49.314;6.752;2022-08-21T05:05:05;99745.38;;;12.25;100.00
48352;BME280;34163;49.314;6.752;2022-08-21T05:07:31;99748.66;;;12.30;100.00
48352;BME280;34163;49.314;6.752;2022-08-21T05:09:56;99743.03;;;12.18;100.00
48352;BME280;34163;49.314;6.752;2022-08-21T12:57:17;99522.97;;;12.44;100.00
48352;BME280;34163;49.314;6.752;2022-08-21T12:59:39;99524.41;;;12.34;100.00
48352;BME280;34163;49.314;6.752;2022-08-21T13:02:10;99518.94;;;12.37;100.00
48352;BME280;34163;49.314;6.752;2022-08-21T13:04:51;99511.81;;;12.38;100.00
48352;BME280;34163;49.314;6.752;2022-08-21T13:07:29;99509.56;;;12.30;100.00
48352;BME280;34163;49.314;6.752;2022-08-21T13:10:19;99510.63;;;12.43;100.00
48352;BME280;34163;49.314;6.752;2022-08-21T13:12:49;99506.41;;;12.23;100.00
48352;BME280;34163;49.314;6.752;2022-08-21T13:15:22;99504.72;;;12.38;100.00
48352;BME280;34163;49.314;6.752;2022-08-21T13:17:51;99498.03;;;12.31;100.00
48352;BME280;34163;49.314;6.752;2022-08-21T13:23:31;99491.44;;;12.38;100.00
48352;BME280;34163;49.314;6.752;2022-08-21T13:31:32;99482.41;;;12.41;100.00
48352;BME280;34163;49.314;6.752;2022-08-21T13:34:13;99477.03;;;12.42;100.00
48352;BME280;34163;49.314;6.752;2022-08-21T13:37:08;99486.56;;;12.46;100.00
48352;BME280;34163;49.314;6.752;2022-08-21T13:45:23;99481.41;;;12.43;100.00
48352;BME280;34163;49.314;6.752;2022-08-21T13:54:35;99471.28;;;12.34;100.00
48352;BME280;34163;49.314;6.752;2022-08-21T14:05:46;99480.63;;;12.57;100.00
48352;BME280;34163;49.314;6.752;2022-08-21T14:11:14;99472.22;;;12.33;100.00
48352;BME280;34163;49.314;6.752;2022-08-21T14:29:06;99465.94;;;12.02;100.00
48352;BME280;34163;49.314;6.752;2022-08-21T14:31:40;99458.22;;;11.97;100.00
48352;BME280;34163;49.314;6.752;2022-08-21T14:34:10;99463.88;;;11.90;100.00
48352;BME280;34163;49.314;6.752;2022-08-21T14:36:41;99459.41;;;11.92;100.00
48352;BME280;34163;49.314;6.752;2022-08-21T14:39:24;99462.69;;;11.79;100.00
48352;BME280;34163;49.314;6.752;2022-08-21T14:41:53;99461.03;;;11.94;100.00
48352;BME280;34163;49.314;6.752;2022-08-21T14:44:36;99460.63;;;11.85;100.00
48352;BME280;34163;49.314;6.752;2022-08-21T14:47:03;99448.19;;;12.03;100.00
48352;BME280;34163;49.314;6.752;2022-08-21T14:52:38;99456.47;;;11.96;100.00
48352;BME280;34163;49.314;6.752;2022-08-21T14:55:15;99457.91;;;11.86;100.00
48352;BME280;34163;49.314;6.752;2022-08-21T14:57:49;99450.84;;;11.85;100.00
48352;BME280;34163;49.314;6.752;2022-08-21T15:00:17;99449.84;;;11.88;100.00
48352;BME280;34163;49.314;6.752;2022-08-21T15:03:05;99451.19;;;11.79;100.00
48352;BME280;34163;49.314;6.752;2022-08-21T15:05:30;99447.84;;;11.93;100.00
48352;BME280;34163;49.314;6.752;2022-08-21T15:08:12;99445.94;;;11.77;100.00
48352;BME280;34163;49.314;6.752;2022-08-21T15:10:40;99447.66;;;11.96;100.00
48352;BME280;34163;49.314;6.752;2022-08-21T15:13:15;99444.69;;;11.85;100.00
48352;BME280;34163;49.314;6.752;2022-08-21T15:15:44;99444.09;;;12.13;100.00
48352;BME280;34163;49.314;6.752;2022-08-21T15:18:13;99444.25;;;11.94;100.00
48352;BME280;34163;49.314;6.752;2022-08-21T15:20:38;99438.97;;;12.10;100.00
48352;BME280;34163;49.314;6.752;2022-08-21T15:26:22;99435.81;;;12.19;100.00
48352;BME280;34163;49.314;6.752;2022-08-21T15:34:32;99427.81;;;12.03;100.00
48352;BME280;34163;49.314;6.752;2022-08-21T15:37:18;99427.44;;;11.93;100.00
48352;BME280;34163;49.314;6.752;2022-08-21T15:39:46;99423.19;;;12.07;100.00
48352;BME280;34163;49.314;6.752;2022-08-21T15:42:12;99422.13;;;11.93;100.00
48352;BME280;34163;49.314;6.752;2022-08-21T15:44:40;99421.38;;;12.07;100.00
48352;BME280;34163;49.314;6.752;2022-08-21T15:47:13;99421.41;;;11.90;100.00
48352;BME280;34163;49.314;6.752;2022-08-21T15:50:20;99418.22;;;12.16;100.00
48352;BME280;34163;49.314;6.752;2022-08-21T15:52:54;99418.22;;;12.01;100.00
48352;BME280;34163;49.314;6.752;2022-08-21T15:55:33;99415.56;;;12.01;100.00
48352;BME280;34163;49.314;6.752;2022-08-21T15:58:03;99417.88;;;12.07;100.00
48352;BME280;34163;49.314;6.752;2022-08-21T16:00:36;99412.53;;;11.91;100.00
48352;BME280;34163;49.314;6.752;2022-08-21T16:03:16;99416.66;;;12.12;100.00
48352;BME280;34163;49.314;6.752;2022-08-21T16:06:04;99408.84;;;11.93;100.00
48352;BME280;34163;49.314;6.752;2022-08-21T16:08:32;99407.78;;;12.13;100.00
48352;BME280;34163;49.314;6.752;2022-08-21T16:11:17;99405.19;;;11.96;100.00
48352;BME280;34163;49.314;6.752;2022-08-21T16:13:53;99411.50;;;11.93;100.00
48352;BME280;34163;49.314;6.752;2022-08-21T16:16:29;99411.53;;;12.09;100.00
48352;BME280;34163;49.314;6.752;2022-08-21T16:18:58;99410.66;;;11.93;100.00
48352;BME280;34163;49.314;6.752;2022-08-21T16:21:27;99406.69;;;12.17;100.00
48352;BME280;34163;49.314;6.752;2022-08-21T16:23:52;99414.09;;;11.95;100.00
48352;BME280;34163;49.314;6.752;2022-08-21T16:26:18;99410.19;;;12.18;100.00
48352;BME280;34163;49.314;6.752;2022-08-21T16:28:46;99410.41;;;11.97;100.00
48352;BME280;34163;49.314;6.752;2022-08-21T16:31:13;99404.03;;;12.17;100.00
48352;BME280;34163;49.314;6.752;2022-08-21T16:33:49;99403.13;;;12.01;100.00
48352;BME280;34163;49.314;6.752;2022-08-21T16:36:23;99404.78;;;12.20;100.00
48352;BME280;34163;49.314;6.752;2022-08-21T16:38:59;99402.81;;;12.07;100.00
48352;BME280;34163;49.314;6.752;2022-08-21T16:41:29;99397.06;;;12.15;100.00
48352;BME280;34163;49.314;6.752;2022-08-21T16:43:58;99398.78;;;12.16;100.00
48352;BME280;34163;49.314;6.752;2022-08-21T16:46:25;99401.09;;;12.06;100.00
48352;BME280;34163;49.314;6.752;2022-08-21T16:51:16;99394.31;;;12.01;100.00
48352;BME280;34163;49.314;6.752;2022-08-21T16:53:42;99394.00;;;12.23;100.00
48352;BME280;34163;49.314;6.752;2022-08-21T16:56:10;99387.13;;;12.03;100.00
48352;BME280;34163;49.314;6.752;2022-08-21T16:58:37;99383.28;;;12.24;100.00
48352;BME280;34163;49.314;6.752;2022-08-21T17:01:08;99389.25;;;11.96;100.00
48352;BME280;34163;49.314;6.752;2022-08-21T17:03:42;99380.72;;;12.23;100.00
48352;BME280;34163;49.314;6.752;2022-08-21T17:06:18;99386.53;;;12.13;100.00
48352;BME280;34163;49.314;6.752;2022-08-21T17:08:46;99382.22;;;12.27;100.00
48352;BME280;34163;49.314;6.752;2022-08-21T17:11:22;99383.28;;;12.08;100.00
48352;BME280;34163;49.314;6.752;2022-08-21T17:13:57;99388.00;;;12.19;100.00
48352;BME280;34163;49.314;6.752;2022-08-21T17:16:43;99393.41;;;12.17;100.00
48352;BME280;34163;49.314;6.752;2022-08-21T17:19:20;99390.28;;;12.09;100.00
48352;BME280;34163;49.314;6.752;2022-08-21T17:21:49;99388.69;;;12.23;100.00
48352;BME280;34163;49.314;6.752;2022-08-21T17:24:27;99391.25;;;12.08;100.00
48352;BME280;34163;49.314;6.752;2022-08-21T17:27:12;99388.41;;;12.27;100.00
48352;BME280;34163;49.314;6.752;2022-08-21T17:29:57;99396.47;;;12.10;100.00
48352;BME280;34163;49.314;6.752;2022-08-21T17:35:18;99389.88;;;12.17;100.00
48352;BME280;34163;49.314;6.752;2022-08-21T17:37:56;99395.41;;;11.96;100.00
48352;BME280;34163;49.314;6.752;2022-08-21T17:40:58;99398.00;;;11.98;100.00
48352;BME280;34163;49.314;6.752;2022-08-21T17:43:43;99399.22;;;12.08;100.00
48352;BME280;34163;49.314;6.752;2022-08-21T17:46:37;99402.63;;;11.94;100.00
48352;BME280;34163;49.314;6.752;2022-08-21T17:49:08;99395.00;;;12.04;100.00
48352;BME280;34163;49.314;6.752;2022-08-21T17:51:33;99396.13;;;12.00;100.00
48352;BME280;34163;49.314;6.752;2022-08-21T17:54:08;99398.16;;;11.95;100.00
48352;BME280;34163;49.314;6.752;2022-08-21T17:56:36;99389.44;;;12.09;100.00
48352;BME280;34163;49.314;6.752;2022-08-21T17:59:17;99394.72;;;11.93;100.00
48352;BME280;34163;49.314;6.752;2022-08-21T18:01:46;99393.41;;;12.17;100.00
48352;BME280;34163;49.314;6.752;2022-08-21T18:04:12;99395.34;;;11.98;100.00
48352;BME280;34163;49.314;6.752;2022-08-21T18:09:45;99393.56;;;12.14;100.00
48352;BME280;34163;49.314;6.752;2022-08-21T18:12:31;99403.66;;;11.92;100.00
48352;BME280;34163;49.314;6.752;2022-08-21T18:14:58;99395.25;;;12.15;100.00
48352;BME280;34163;49.314;6.752;2022-08-21T18:17:26;99400.06;;;12.25;100.00
48352;BME280;34163;49.314;6.752;2022-08-21T18:22:31;99396.47;;;11.94;100.00
48352;BME280;34163;49.314;6.752;2022-08-21T18:25:10;99406.13;;;11.77;100.00
48352;BME280;34163;49.314;6.752;2022-08-21T18:31:06;99414.38;;;11.73;100.00
48352;BME280;34163;49.314;6.752;2022-08-21T18:33:34;99408.19;;;11.72;100.00
48352;BME280;34163;49.314;6.752;2022-08-21T18:39:03;99416.03;;;11.58;100.00
48352;BME280;34163;49.314;6.752;2022-08-21T18:41:46;99405.38;;;11.75;100.00
48352;BME280;34163;49.314;6.752;2022-08-21T18:50:16;99408.91;;;11.76;100.00
48352;BME280;34163;49.314;6.752;2022-08-21T18:52:51;99409.00;;;11.74;100.00
48352;BME280;34163;49.314;6.752;2022-08-21T18:57:56;99407.59;;;11.67;100.00
48352;BME280;34163;49.314;6.752;2022-08-21T19:00:25;99416.34;;;11.85;100.00
48352;BME280;34163;49.314;6.752;2022-08-21T19:02:59;99411.25;;;11.64;100.00
48352;BME280;34163;49.314;6.752;2022-08-21T19:05:30;99420.56;;;11.89;100.00
48352;BME280;34163;49.314;6.752;2022-08-21T19:11:10;99418.41;;;11.80;100.00
48352;BME280;34163;49.314;6.752;2022-08-21T19:13:48;99420.72;;;11.86;100.00
48352;BME280;34163;49.314;6.752;2022-08-21T19:19:32;99419.59;;;11.92;100.00
48352;BME280;34163;49.314;6.752;2022-08-21T19:25:06;99422.75;;;11.65;100.00
48352;BME280;34163;49.314;6.752;2022-08-21T19:36:31;99433.00;;;11.89;100.00
48352;BME280;34163;49.314;6.752;2022-08-21T19:39:28;99428.34;;;11.76;100.00
48352;BME280;34163;49.314;6.752;2022-08-21T19:42:10;99435.06;;;11.66;100.00
48352;BME280;34163;49.314;6.752;2022-08-21T19:47:35;99441.31;;;11.65;100.00
48352;BME280;34163;49.314;6.752;2022-08-21T19:52:55;99445.28;;;11.74;100.00
48352;BME280;34163;49.314;6.752;2022-08-21T19:55:23;99444.38;;;11.57;100.00
48352;BME280;34163;49.314;6.752;2022-08-21T19:57:59;99449.16;;;11.84;100.00
48352;BME280;34163;49.314;6.752;2022-08-21T20:00:32;99445.81;;;11.63;100.00
48352;BME280;34163;49.314;6.752;2022-08-21T20:03:00;99446.59;;;11.82;100.00
48352;BME280;34163;49.314;6.752;2022-08-21T20:08:44;99445.81;;;11.63;100.00
48352;BME280;34163;49.314;6.752;2022-08-21T20:14:06;99454.28;;;11.71;100.00
48352;BME280;34163;49.314;6.752;2022-08-21T20:16:33;99447.22;;;11.70;100.00
48352;BME280;34163;49.314;6.752;2022-08-21T20:18:59;99449.41;;;11.79;100.00
48352;BME280;34163;49.314;6.752;2022-08-21T20:34:14;99445.22;;;11.58;100.00
48352;BME280;34163;49.314;6.752;2022-08-21T20:37:12;99447.00;;;11.75;100.00
48352;BME280;34163;49.314;6.752;2022-08-21T20:42:36;99444.75;;;11.50;100.00
48352;BME280;34163;49.314;6.752;2022-08-21T20:45:07;99447.59;;;11.80;100.00
48352;BME280;34163;49.314;6.752;2022-08-21T20:50:39;99448.91;;;11.55;100.00
48352;BME280;34163;49.314;6.752;2022-08-21T20:53:31;99449.41;;;11.79;100.00
48352;BME280;34163;49.314;6.752;2022-08-21T20:55:59;99444.13;;;11.62;100.00
48352;BME280;34163;49.314;6.752;2022-08-21T21:10:42;99441.75;;;11.73;100.00
48352;BME280;34163;49.314;6.752;2022-08-21T21:22:54;99442.41;;;11.61;100.00
48352;BME280;34163;49.314;6.752;2022-08-21T21:25:34;99443.84;;;11.51;100.00
48352;BME280;34163;49.314;6.752;2022-08-21T21:33:42;99443.03;;;11.49;100.00
48352;BME280;34163;49.314;6.752;2022-08-21T21:39:27;99448.00;;;11.72;100.00
48352;BME280;34163;49.314;6.752;2022-08-21T21:44:45;99450.06;;;11.67;100.00
48352;BME280;34163;49.314;6.752;2022-08-21T22:00:50;99479.56;;;11.08;100.00
48352;BME280;34163;49.314;6.752;2022-08-21T22:16:36;99474.78;;;10.80;100.00
48352;BME280;34163;49.314;6.752;2022-08-21T22:19:08;99475.22;;;10.71;100.00
48352;BME280;34163;49.314;6.752;2022-08-21T22:21:41;99471.97;;;10.83;100.00
48352;BME280;34163;49.314;6.752;2022-08-21T22:27:09;99479.69;;;10.88;100.00
48352;BME280;34163;49.314;6.752;2022-08-21T22:29:44;99484.78;;;10.73;100.00
48352;BME280;34163;49.314;6.752;2022-08-21T22:32:21;99482.47;;;10.85;100.00
48352;BME280;34163;49.314;6.752;2022-08-21T22:41:17;99489.28;;;10.90;100.00
48352;BME280;34163;49.314;6.752;2022-08-21T22:46:32;99488.19;;;10.77;100.00
48352;BME280;34163;49.314;6.752;2022-08-21T22:55:24;99486.72;;;10.89;100.00
48352;BME280;34163;49.314;6.752;2022-08-21T22:58:18;99484.69;;;10.94;100.00
48352;BME280;34163;49.314;6.752;2022-08-21T23:04:24;99496.72;;;11.01;100.00
